sensor_id;sensor_type;location;lat;lon;timestamp;pressure;altitude;pressure_sealevel;temperature;humidity
18795;BME280;29610;49.022;12.114;2023-12-20T00:00:06;97686.34;;;5.31;100.00
18795;BME280;29610;49.022;12.114;2023-12-20T00:02:35;97695.25;;;5.32;100.00
18795;BME280;29610;49.022;12.114;2023-12-20T00:05:04;97686.50;;;5.21;100.00
18795;BME280;29610;49.022;12.114;2023-12-20T00:07:32;97682.34;;;5.29;100.00
18795;BME280;29610;49.022;12.114;2023-12-20T00:10:01;97666.41;;;5.32;100.00
18795;BME280;29610;49.022;12.114;2023-12-20T00:12:31;97657.53;;;5.32;100.00
18795;BME280;29610;49.022;12.114;2023-12-20T00:14:59;97658.09;;;5.29;100.00
18795;BME280;29610;49.022;12.114;2023-12-20T00:17:27;97651.22;;;5.18;100.00
18795;BME280;29610;49.022;12.114;2023-12-20T00:19:55;97661.66;;;5.24;100.00
18795;BME280;29610;49.022;12.114;2023-12-20T00:22:24;97644.34;;;5.30;100.00
18795;BME280;29610;49.022;12.114;2023-12-20T00:24:52;97652.13;;;5.32;100.00
18795;BME280;29610;49.022;12.114;2023-12-20T00:27:20;97654.78;;;5.37;100.00
18795;BME280;29610;49.022;12.114;2023-12-20T00:29:50;97639.69;;;5.36;100.00
18795;BME280;29610;49.022;12.114;2023-12-20T00:32:18;97653.22;;;5.31;100.00
18795;BME280;29610;49.022;12.114;2023-12-20T00:34:47;97641.59;;;5.35;100.00
18795;BME280;29610;49.022;12.114;2023-12-20T00:37:15;97646.69;;;5.37;100.00
18795;BME280;29610;49.022;12.114;2023-12-20T00:39:43;97649.66;;;5.35;100.00
18795;BME280;29610;49.022;12.114;2023-12-20T00:42:11;97654.72;;;5.42;100.00
18795;BME280;29610;49.022;12.114;2023-12-20T00:44:40;97652.38;;;5.35;100.00
18795;BME280;29610;49.022;12.114;2023-12-20T00:47:09;97635.84;;;5.42;100.00
18795;BME280;29610;49.022;12.114;2023-12-20T00:49:38;97638.19;;;5.48;100.00
18795;BME280;29610;49.022;12.114;2023-12-20T00:52:06;97638.63;;;5.55;100.00
18795;BME280;29610;49.022;12.114;2023-12-20T00:54:34;97647.06;;;5.49;100.00
18795;BME280;29610;49.022;12.114;2023-12-20T00:57:03;97651.03;;;5.56;100.00
18795;BME280;29610;49.022;12.114;2023-12-20T00:59:31;97644.09;;;5.50;100.00
18795;BME280;29610;49.022;12.114;2023-12-20T01:01:59;97644.22;;;5.59;100.00
18795;BME280;29610;49.022;12.114;2023-12-20T01:04:29;97634.84;;;5.56;100.00
18795;BME280;29610;49.022;12.114;2023-12-20T01:06:57;97638.94;;;5.30;100.00
18795;BME280;29610;49.022;12.114;2023-12-20T01:09:26;97634.81;;;5.38;100.00
18795;BME280;29610;49.022;12.114;2023-12-20T01:11:55;97644.00;;;5.37;100.00
18795;BME280;29610;49.022;12.114;2023-12-20T01:14:23;97647.50;;;5.37;100.00
18795;BME280;29610;49.022;12.114;2023-12-20T01:16:53;97643.13;;;5.41;100.00
18795;BME280;29610;49.022;12.114;2023-12-20T01:19:22;97639.34;;;5.42;100.00
18795;BME280;29610;49.022;12.114;2023-12-20T01:21:52;97645.16;;;5.49;100.00
18795;BME280;29610;49.022;12.114;2023-12-20T01:24:20;97651.50;;;5.40;100.00
18795;BME280;29610;49.022;12.114;2023-12-20T01:26:48;97647.50;;;5.56;100.00
18795;BME280;29610;49.022;12.114;2023-12-20T01:29:17;97635.44;;;5.53;100.00
18795;BME280;29610;49.022;12.114;2023-12-20T01:31:45;97644.88;;;5.51;100.00
18795;BME280;29610;49.022;12.114;2023-12-20T01:34:13;97641.88;;;5.52;100.00
18795;BME280;29610;49.022;12.114;2023-12-20T01:36:42;97630.09;;;5.48;100.00
18795;BME280;29610;49.022;12.114;2023-12-20T01:39:12;97619.31;;;5.48;100.00
18795;BME280;29610;49.022;12.114;2023-12-20T01:41:54;97611.38;;;5.57;100.00
18795;BME280;29610;49.022;12.114;2023-12-20T01:44:22;97603.78;;;5.59;100.00
18795;BME280;29610;49.022;12.114;2023-12-20T01:46:51;97599.63;;;5.48;100.00
18795;BME280;29610;49.022;12.114;2023-12-20T01:49:20;97603.56;;;5.55;100.00
18795;BME280;29610;49.022;12.114;2023-12-20T01:51:50;97613.56;;;5.55;100.00
18795;BME280;29610;49.022;12.114;2023-12-20T01:54:20;97608.47;;;5.53;100.00
18795;BME280;29610;49.022;12.114;2023-12-20T01:56:50;97601.84;;;5.64;100.00
18795;BME280;29610;49.022;12.114;2023-12-20T01:59:20;97597.53;;;5.63;100.00
18795;BME280;29610;49.022;12.114;2023-12-20T02:01:48;97604.69;;;5.54;100.00
18795;BME280;29610;49.022;12.114;2023-12-20T02:04:17;97608.59;;;5.62;100.00
18795;BME280;29610;49.022;12.114;2023-12-20T02:06:46;97597.97;;;5.70;100.00
18795;BME280;29610;49.022;12.114;2023-12-20T02:09:15;97597.03;;;5.80;100.00
18795;BME280;29610;49.022;12.114;2023-12-20T02:11:45;97601.19;;;5.72;100.00
18795;BME280;29610;49.022;12.114;2023-12-20T02:14:13;97600.09;;;5.73;100.00
18795;BME280;29610;49.022;12.114;2023-12-20T02:16:42;97592.44;;;5.80;100.00
18795;BME280;29610;49.022;12.114;2023-12-20T02:19:14;97587.56;;;5.82;100.00
18795;BME280;29610;49.022;12.114;2023-12-20T02:21:44;97582.38;;;5.86;100.00
18795;BME280;29610;49.022;12.114;2023-12-20T02:24:12;97579.16;;;5.65;100.00
18795;BME280;29610;49.022;12.114;2023-12-20T02:26:40;97575.31;;;5.71;100.00
18795;BME280;29610;49.022;12.114;2023-12-20T02:29:12;97565.13;;;5.87;100.00
18795;BME280;29610;49.022;12.114;2023-12-20T02:31:41;97571.00;;;5.89;100.00
18795;BME280;29610;49.022;12.114;2023-12-20T02:34:09;97555.69;;;6.03;100.00
18795;BME280;29610;49.022;12.114;2023-12-20T02:36:37;97556.38;;;5.95;100.00
18795;BME280;29610;49.022;12.114;2023-12-20T02:39:07;97558.09;;;6.05;100.00
18795;BME280;29610;49.022;12.114;2023-12-20T02:41:35;97560.28;;;6.03;100.00
18795;BME280;29610;49.022;12.114;2023-12-20T02:44:04;97561.25;;;5.93;100.00
18795;BME280;29610;49.022;12.114;2023-12-20T02:46:32;97560.38;;;5.97;100.00
18795;BME280;29610;49.022;12.114;2023-12-20T02:49:00;97562.25;;;5.97;100.00
18795;BME280;29610;49.022;12.114;2023-12-20T02:51:28;97556.41;;;6.09;100.00
18795;BME280;29610;49.022;12.114;2023-12-20T02:53:57;97555.34;;;6.23;100.00
18795;BME280;29610;49.022;12.114;2023-12-20T02:56:26;97555.13;;;6.20;100.00
18795;BME280;29610;49.022;12.114;2023-12-20T02:58:54;97558.44;;;6.17;100.00
18795;BME280;29610;49.022;12.114;2023-12-20T03:01:22;97563.38;;;6.10;100.00
18795;BME280;29610;49.022;12.114;2023-12-20T03:03:51;97558.00;;;6.10;100.00
18795;BME280;29610;49.022;12.114;2023-12-20T03:06:19;97556.84;;;6.16;100.00
18795;BME280;29610;49.022;12.114;2023-12-20T03:08:48;97556.84;;;6.16;100.00
18795;BME280;29610;49.022;12.114;2023-12-20T03:11:16;97555.00;;;6.11;100.00
18795;BME280;29610;49.022;12.114;2023-12-20T03:13:45;97545.97;;;6.21;100.00
18795;BME280;29610;49.022;12.114;2023-12-20T03:16:14;97552.19;;;6.35;100.00
18795;BME280;29610;49.022;12.114;2023-12-20T03:18:43;97544.75;;;6.27;100.00
18795;BME280;29610;49.022;12.114;2023-12-20T03:21:12;97540.66;;;6.16;100.00
18795;BME280;29610;49.022;12.114;2023-12-20T03:23:40;97541.25;;;6.26;100.00
18795;BME280;29610;49.022;12.114;2023-12-20T03:26:09;97535.84;;;6.26;100.00
18795;BME280;29610;49.022;12.114;2023-12-20T03:28:37;97526.84;;;6.17;100.00
18795;BME280;29610;49.022;12.114;2023-12-20T03:31:07;97535.84;;;6.26;100.00
18795;BME280;29610;49.022;12.114;2023-12-20T03:33:37;97539.75;;;6.34;100.00
18795;BME280;29610;49.022;12.114;2023-12-20T03:36:06;97533.88;;;6.32;100.00
18795;BME280;29610;49.022;12.114;2023-12-20T03:38:34;97532.66;;;6.24;100.00
18795;BME280;29610;49.022;12.114;2023-12-20T03:41:04;97535.78;;;6.31;100.00
18795;BME280;29610;49.022;12.114;2023-12-20T03:43:32;97538.47;;;6.31;100.00
18795;BME280;29610;49.022;12.114;2023-12-20T03:46:00;97539.66;;;6.25;100.00
18795;BME280;29610;49.022;12.114;2023-12-20T03:48:32;97542.28;;;6.44;100.00
18795;BME280;29610;49.022;12.114;2023-12-20T03:51:00;97536.88;;;6.44;100.00
18795;BME280;29610;49.022;12.114;2023-12-20T03:53:28;97549.66;;;6.25;100.00
18795;BME280;29610;49.022;12.114;2023-12-20T03:55:56;97548.53;;;6.26;100.00
18795;BME280;29610;49.022;12.114;2023-12-20T03:58:24;97546.34;;;6.28;100.00
18795;BME280;29610;49.022;12.114;2023-12-20T04:00:53;97542.53;;;6.29;100.00
18795;BME280;29610;49.022;12.114;2023-12-20T04:03:21;97543.28;;;6.34;100.00
18795;BME280;29610;49.022;12.114;2023-12-20T04:05:50;97547.94;;;6.29;100.00
18795;BME280;29610;49.022;12.114;2023-12-20T04:08:19;97551.16;;;6.31;100.00
18795;BME280;29610;49.022;12.114;2023-12-20T04:10:48;97554.88;;;6.35;100.00
18795;BME280;29610;49.022;12.114;2023-12-20T04:13:16;97550.94;;;6.27;100.00
18795;BME280;29610;49.022;12.114;2023-12-20T04:15:44;97555.19;;;6.33;100.00
18795;BME280;29610;49.022;12.114;2023-12-20T04:18:12;97551.88;;;6.36;100.00
18795;BME280;29610;49.022;12.114;2023-12-20T04:20:41;97551.97;;;6.31;100.00
18795;BME280;29610;49.022;12.114;2023-12-20T04:23:10;97552.38;;;6.38;100.00
18795;BME280;29610;49.022;12.114;2023-12-20T04:25:38;97555.28;;;6.42;100.00
18795;BME280;29610;49.022;12.114;2023-12-20T04:28:07;97547.63;;;6.17;100.00
18795;BME280;29610;49.022;12.114;2023-12-20T04:30:35;97551.25;;;6.26;100.00
18795;BME280;29610;49.022;12.114;2023-12-20T04:33:03;97550.16;;;6.27;100.00
18795;BME280;29610;49.022;12.114;2023-12-20T04:35:32;97553.34;;;6.29;100.00
18795;BME280;29610;49.022;12.114;2023-12-20T04:38:00;97562.25;;;6.29;100.00
18795;BME280;29610;49.022;12.114;2023-12-20T04:40:30;97558.34;;;6.22;100.00
18795;BME280;29610;49.022;12.114;2023-12-20T04:42:58;97552.38;;;6.38;100.00
18795;BME280;29610;49.022;12.114;2023-12-20T04:45:27;97556.34;;;6.27;100.00
18795;BME280;29610;49.022;12.114;2023-12-20T04:47:55;97565.88;;;6.38;100.00
18795;BME280;29610;49.022;12.114;2023-12-20T04:50:23;97555.34;;;6.37;100.00
18795;BME280;29610;49.022;12.114;2023-12-20T04:52:52;97562.59;;;6.41;100.00
18795;BME280;29610;49.022;12.114;2023-12-20T04:55:20;97559.97;;;6.36;100.00
18795;BME280;29610;49.022;12.114;2023-12-20T04:57:49;97559.47;;;6.34;100.00
18795;BME280;29610;49.022;12.114;2023-12-20T05:00:18;97552.88;;;6.27;100.00
18795;BME280;29610;49.022;12.114;2023-12-20T05:02:46;97551.19;;;6.44;100.00
18795;BME280;29610;49.022;12.114;2023-12-20T05:05:14;97551.66;;;6.46;100.00
18795;BME280;29610;49.022;12.114;2023-12-20T05:07:44;97545.28;;;6.42;100.00
18795;BME280;29610;49.022;12.114;2023-12-20T05:10:13;97549.28;;;6.45;100.00
18795;BME280;29610;49.022;12.114;2023-12-20T05:12:42;97551.19;;;6.44;100.00
18795;BME280;29610;49.022;12.114;2023-12-20T05:15:11;97551.38;;;6.34;100.00
18795;BME280;29610;49.022;12.114;2023-12-20T05:17:40;97552.34;;;6.25;100.00
18795;BME280;29610;49.022;12.114;2023-12-20T05:20:09;97560.16;;;6.26;100.00
18795;BME280;29610;49.022;12.114;2023-12-20T05:22:37;97559.69;;;6.38;100.00
18795;BME280;29610;49.022;12.114;2023-12-20T05:25:06;97560.66;;;6.42;100.00
18795;BME280;29610;49.022;12.114;2023-12-20T05:27:34;97569.28;;;6.44;100.00
18795;BME280;29610;49.022;12.114;2023-12-20T05:30:03;97568.28;;;6.40;100.00
18795;BME280;29610;49.022;12.114;2023-12-20T05:32:33;97575.88;;;6.38;100.00
18795;BME280;29610;49.022;12.114;2023-12-20T05:35:01;97575.34;;;6.36;100.00
18795;BME280;29610;49.022;12.114;2023-12-20T05:37:30;97577.69;;;6.42;100.00
18795;BME280;29610;49.022;12.114;2023-12-20T05:39:58;97582.47;;;6.45;100.00
18795;BME280;29610;49.022;12.114;2023-12-20T05:42:26;97577.97;;;6.41;100.00
18795;BME280;29610;49.022;12.114;2023-12-20T05:44:55;97588.84;;;6.36;100.00
18795;BME280;29610;49.022;12.114;2023-12-20T05:47:25;97592.28;;;6.55;100.00
18795;BME280;29610;49.022;12.114;2023-12-20T05:49:55;97590.19;;;6.38;100.00
18795;BME280;29610;49.022;12.114;2023-12-20T05:52:23;97594.69;;;6.43;100.00
18795;BME280;29610;49.022;12.114;2023-12-20T05:54:51;97593.66;;;6.39;100.00
18795;BME280;29610;49.022;12.114;2023-12-20T05:57:20;97603.38;;;6.53;100.00
18795;BME280;29610;49.022;12.114;2023-12-20T05:59:50;97611.56;;;6.48;100.00
18795;BME280;29610;49.022;12.114;2023-12-20T06:02:18;97612.38;;;6.49;100.00
18795;BME280;29610;49.022;12.114;2023-12-20T06:04:47;97619.47;;;6.45;100.00
18795;BME280;29610;49.022;12.114;2023-12-20T06:07:16;97621.53;;;6.34;100.00
18795;BME280;29610;49.022;12.114;2023-12-20T06:09:45;97624.66;;;6.41;100.00
18795;BME280;29610;49.022;12.114;2023-12-20T06:12:13;97626.69;;;6.49;100.00
18795;BME280;29610;49.022;12.114;2023-12-20T06:14:41;97622.00;;;6.55;100.00
18795;BME280;29610;49.022;12.114;2023-12-20T06:17:09;97627.31;;;6.60;100.00
18795;BME280;29610;49.022;12.114;2023-12-20T06:19:37;97626.47;;;6.46;100.00
18795;BME280;29610;49.022;12.114;2023-12-20T06:22:06;97632.66;;;6.46;100.00
18795;BME280;29610;49.022;12.114;2023-12-20T06:24:35;97636.00;;;6.57;100.00
18795;BME280;29610;49.022;12.114;2023-12-20T06:27:04;97639.41;;;6.62;100.00
18795;BME280;29610;49.022;12.114;2023-12-20T06:29:32;97632.09;;;6.49;100.00
18795;BME280;29610;49.022;12.114;2023-12-20T06:32:02;97640.97;;;6.50;100.00
18795;BME280;29610;49.022;12.114;2023-12-20T06:34:30;97645.75;;;6.39;100.00
18795;BME280;29610;49.022;12.114;2023-12-20T06:36:58;97646.75;;;6.43;100.00
18795;BME280;29610;49.022;12.114;2023-12-20T06:39:26;97654.47;;;6.50;100.00
18795;BME280;29610;49.022;12.114;2023-12-20T06:41:57;97656.00;;;6.56;100.00
18795;BME280;29610;49.022;12.114;2023-12-20T06:44:25;97644.03;;;6.62;100.00
18795;BME280;29610;49.022;12.114;2023-12-20T06:46:54;97637.38;;;6.54;100.00
18795;BME280;29610;49.022;12.114;2023-12-20T06:49:22;97630.38;;;6.53;100.00
18795;BME280;29610;49.022;12.114;2023-12-20T06:51:50;97641.28;;;6.48;100.00
18795;BME280;29610;49.022;12.114;2023-12-20T06:54:20;97658.31;;;6.62;100.00
18795;BME280;29610;49.022;12.114;2023-12-20T06:56:48;97661.94;;;6.71;100.00
18795;BME280;29610;49.022;12.114;2023-12-20T06:59:18;97667.63;;;6.70;100.00
18795;BME280;29610;49.022;12.114;2023-12-20T07:01:48;97668.72;;;6.69;100.00
18795;BME280;29610;49.022;12.114;2023-12-20T07:04:17;97668.94;;;6.72;100.00
18795;BME280;29610;49.022;12.114;2023-12-20T07:06:48;97684.22;;;6.63;100.00
18795;BME280;29610;49.022;12.114;2023-12-20T07:09:18;97680.16;;;6.47;100.00
18795;BME280;29610;49.022;12.114;2023-12-20T07:11:47;97678.31;;;6.61;100.00
18795;BME280;29610;49.022;12.114;2023-12-20T07:14:15;97681.38;;;6.55;100.00
18795;BME280;29610;49.022;12.114;2023-12-20T07:16:44;97691.38;;;6.54;100.00
18795;BME280;29610;49.022;12.114;2023-12-20T07:19:13;97682.91;;;6.61;100.00
18795;BME280;29610;49.022;12.114;2023-12-20T07:21:41;97689.03;;;6.66;100.00
18795;BME280;29610;49.022;12.114;2023-12-20T07:24:09;97696.69;;;6.59;100.00
18795;BME280;29610;49.022;12.114;2023-12-20T07:26:38;97687.53;;;6.74;100.00
18795;BME280;29610;49.022;12.114;2023-12-20T07:29:07;97690.44;;;6.77;100.00
18795;BME280;29610;49.022;12.114;2023-12-20T07:31:35;97688.41;;;6.56;100.00
18795;BME280;29610;49.022;12.114;2023-12-20T07:34:04;97694.19;;;6.49;100.00
18795;BME280;29610;49.022;12.114;2023-12-20T07:36:33;97698.47;;;6.50;100.00
18795;BME280;29610;49.022;12.114;2023-12-20T07:39:01;97698.03;;;6.43;100.00
18795;BME280;29610;49.022;12.114;2023-12-20T07:41:30;97708.72;;;6.35;100.00
18795;BME280;29610;49.022;12.114;2023-12-20T07:43:58;97719.28;;;6.31;100.00
18795;BME280;29610;49.022;12.114;2023-12-20T07:46:26;97724.66;;;6.50;100.00
18795;BME280;29610;49.022;12.114;2023-12-20T07:48:55;97733.66;;;6.45;100.00
18795;BME280;29610;49.022;12.114;2023-12-20T07:51:24;97733.06;;;6.48;100.00
18795;BME280;29610;49.022;12.114;2023-12-20T07:53:53;97733.88;;;6.49;100.00
18795;BME280;29610;49.022;12.114;2023-12-20T07:56:21;97742.56;;;6.46;100.00
18795;BME280;29610;49.022;12.114;2023-12-20T07:58:49;97740.06;;;6.49;100.00
18795;BME280;29610;49.022;12.114;2023-12-20T08:01:20;97735.13;;;6.38;100.00
18795;BME280;29610;49.022;12.114;2023-12-20T08:03:49;97740.81;;;6.36;100.00
18795;BME280;29610;49.022;12.114;2023-12-20T08:06:19;97744.41;;;6.32;100.00
18795;BME280;29610;49.022;12.114;2023-12-20T08:08:49;97750.50;;;6.37;100.00
18795;BME280;29610;49.022;12.114;2023-12-20T08:11:28;97751.38;;;6.51;100.00
18795;BME280;29610;49.022;12.114;2023-12-20T08:13:56;97751.84;;;6.40;100.00
18795;BME280;29610;49.022;12.114;2023-12-20T08:16:25;97761.00;;;6.39;100.00
18795;BME280;29610;49.022;12.114;2023-12-20T08:18:53;97749.56;;;6.47;100.00
18795;BME280;29610;49.022;12.114;2023-12-20T08:21:21;97754.22;;;6.60;100.00
18795;BME280;29610;49.022;12.114;2023-12-20T08:23:51;97759.81;;;6.63;100.00
18795;BME280;29610;49.022;12.114;2023-12-20T08:26:20;97759.28;;;6.48;100.00
18795;BME280;29610;49.022;12.114;2023-12-20T08:28:50;97760.78;;;6.54;100.00
18795;BME280;29610;49.022;12.114;2023-12-20T08:31:18;97762.75;;;6.48;100.00
18795;BME280;29610;49.022;12.114;2023-12-20T08:33:48;97762.47;;;6.50;100.00
18795;BME280;29610;49.022;12.114;2023-12-20T08:36:19;97766.16;;;6.72;100.00
18795;BME280;29610;49.022;12.114;2023-12-20T08:38:48;97770.25;;;6.70;100.00
18795;BME280;29610;49.022;12.114;2023-12-20T08:41:18;97764.28;;;6.73;100.00
18795;BME280;29610;49.022;12.114;2023-12-20T08:43:47;97769.16;;;6.71;100.00
18795;BME280;29610;49.022;12.114;2023-12-20T08:46:15;97772.78;;;6.80;100.00
18795;BME280;29610;49.022;12.114;2023-12-20T08:48:44;97767.31;;;6.85;100.00
18795;BME280;29610;49.022;12.114;2023-12-20T08:51:13;97766.53;;;6.84;100.00
18795;BME280;29610;49.022;12.114;2023-12-20T08:53:41;97759.94;;;6.90;100.00
18795;BME280;29610;49.022;12.114;2023-12-20T08:56:12;97761.91;;;6.85;100.00
18795;BME280;29610;49.022;12.114;2023-12-20T08:58:41;97756.72;;;6.88;100.00
18795;BME280;29610;49.022;12.114;2023-12-20T09:01:09;97759.13;;;6.90;100.00
18795;BME280;29610;49.022;12.114;2023-12-20T09:03:39;97757.38;;;7.12;100.00
18795;BME280;29610;49.022;12.114;2023-12-20T09:06:07;97757.75;;;7.06;100.00
18795;BME280;29610;49.022;12.114;2023-12-20T09:08:36;97754.75;;;7.07;100.00
18795;BME280;29610;49.022;12.114;2023-12-20T09:11:04;97748.25;;;7.08;100.00
18795;BME280;29610;49.022;12.114;2023-12-20T09:13:33;97743.06;;;7.12;100.00
18795;BME280;29610;49.022;12.114;2023-12-20T09:16:03;97742.06;;;7.21;100.00
18795;BME280;29610;49.022;12.114;2023-12-20T09:18:31;97740.91;;;7.27;100.00
18795;BME280;29610;49.022;12.114;2023-12-20T09:21:00;97748.41;;;7.30;100.00
18795;BME280;29610;49.022;12.114;2023-12-20T09:23:29;97757.13;;;7.41;100.00
18795;BME280;29610;49.022;12.114;2023-12-20T09:25:57;97749.19;;;7.31;100.00
18795;BME280;29610;49.022;12.114;2023-12-20T09:28:25;97750.13;;;7.54;100.00
18795;BME280;29610;49.022;12.114;2023-12-20T09:30:53;97755.31;;;7.50;100.00
18795;BME280;29610;49.022;12.114;2023-12-20T09:33:23;97764.03;;;7.47;100.00
18795;BME280;29610;49.022;12.114;2023-12-20T09:35:52;97764.34;;;7.59;100.00
18795;BME280;29610;49.022;12.114;2023-12-20T09:38:20;97769.72;;;7.32;100.00
18795;BME280;29610;49.022;12.114;2023-12-20T09:40:49;97759.53;;;7.56;100.00
18795;BME280;29610;49.022;12.114;2023-12-20T09:43:20;97760.16;;;7.53;100.00
18795;BME280;29610;49.022;12.114;2023-12-20T09:45:53;97758.22;;;7.54;100.00
18795;BME280;29610;49.022;12.114;2023-12-20T09:48:26;97753.41;;;7.51;100.00
18795;BME280;29610;49.022;12.114;2023-12-20T09:50:56;97743.41;;;7.65;100.00
18795;BME280;29610;49.022;12.114;2023-12-20T09:53:25;97747.72;;;7.79;100.00
18795;BME280;29610;49.022;12.114;2023-12-20T09:55:58;97747.50;;;7.48;100.00
18795;BME280;29610;49.022;12.114;2023-12-20T09:58:27;97739.41;;;7.35;100.00
18795;BME280;29610;49.022;12.114;2023-12-20T10:00:56;97737.38;;;7.40;100.00
18795;BME280;29610;49.022;12.114;2023-12-20T10:03:26;97736.00;;;7.43;100.00
18795;BME280;29610;49.022;12.114;2023-12-20T10:05:57;97735.88;;;7.34;100.00
18795;BME280;29610;49.022;12.114;2023-12-20T10:08:25;97737.06;;;7.69;100.00
18795;BME280;29610;49.022;12.114;2023-12-20T10:10:54;97738.91;;;7.74;100.00
18795;BME280;29610;49.022;12.114;2023-12-20T10:13:25;97741.09;;;7.58;100.00
18795;BME280;29610;49.022;12.114;2023-12-20T10:15:55;97734.69;;;7.40;100.00
18795;BME280;29610;49.022;12.114;2023-12-20T10:18:25;97731.38;;;7.43;100.00
18795;BME280;29610;49.022;12.114;2023-12-20T10:21:06;97726.88;;;7.80;100.00
18795;BME280;29610;49.022;12.114;2023-12-20T10:23:37;97739.38;;;7.89;100.00
18795;BME280;29610;49.022;12.114;2023-12-20T10:26:06;97745.56;;;8.03;100.00
18795;BME280;29610;49.022;12.114;2023-12-20T10:28:34;97741.34;;;8.11;100.00
18795;BME280;29610;49.022;12.114;2023-12-20T10:31:03;97733.06;;;8.07;100.00
18795;BME280;29610;49.022;12.114;2023-12-20T10:33:33;97732.66;;;8.00;100.00
18795;BME280;29610;49.022;12.114;2023-12-20T10:36:02;97736.03;;;8.19;100.00
18795;BME280;29610;49.022;12.114;2023-12-20T10:38:30;97733.50;;;7.74;100.00
18795;BME280;29610;49.022;12.114;2023-12-20T10:41:01;97735.91;;;7.75;100.00
18795;BME280;29610;49.022;12.114;2023-12-20T10:43:32;97735.41;;;7.46;100.00
18795;BME280;29610;49.022;12.114;2023-12-20T10:46:03;97738.31;;;7.50;100.00
18795;BME280;29610;49.022;12.114;2023-12-20T10:48:35;97743.38;;;7.37;100.00
18795;BME280;29610;49.022;12.114;2023-12-20T10:51:05;97747.41;;;7.40;100.00
18795;BME280;29610;49.022;12.114;2023-12-20T10:53:36;97748.00;;;7.51;100.00
18795;BME280;29610;49.022;12.114;2023-12-20T10:56:12;97749.09;;;7.63;100.00
18795;BME280;29610;49.022;12.114;2023-12-20T10:58:45;97741.09;;;7.58;100.00
18795;BME280;29610;49.022;12.114;2023-12-20T11:01:15;97726.06;;;7.93;100.00
18795;BME280;29610;49.022;12.114;2023-12-20T11:03:49;97725.94;;;8.25;100.00
18795;BME280;29610;49.022;12.114;2023-12-20T11:06:30;97732.97;;;7.99;100.00
18795;BME280;29610;49.022;12.114;2023-12-20T11:09:17;97726.78;;;8.34;100.00
18795;BME280;29610;49.022;12.114;2023-12-20T11:12:02;97718.66;;;8.20;100.00
18795;BME280;29610;49.022;12.114;2023-12-20T11:14:46;97718.09;;;8.10;100.00
18795;BME280;29610;49.022;12.114;2023-12-20T11:17:15;97708.81;;;7.89;100.00
18795;BME280;29610;49.022;12.114;2023-12-20T11:20:09;97716.50;;;8.09;100.00
18795;BME280;29610;49.022;12.114;2023-12-20T11:22:52;97711.25;;;8.12;100.00
18795;BME280;29610;49.022;12.114;2023-12-20T11:25:21;97704.56;;;8.10;100.00
18795;BME280;29610;49.022;12.114;2023-12-20T11:28:09;97689.91;;;8.11;100.00
18795;BME280;29610;49.022;12.114;2023-12-20T11:30:42;97689.19;;;8.32;100.00
18795;BME280;29610;49.022;12.114;2023-12-20T11:33:11;97691.34;;;8.44;100.00
18795;BME280;29610;49.022;12.114;2023-12-20T11:35:42;97696.56;;;8.05;100.00
18795;BME280;29610;49.022;12.114;2023-12-20T11:38:11;97690.00;;;7.70;100.00
18795;BME280;29610;49.022;12.114;2023-12-20T11:40:42;97694.41;;;7.80;100.00
18795;BME280;29610;49.022;12.114;2023-12-20T11:43:11;97684.34;;;7.94;100.00
18795;BME280;29610;49.022;12.114;2023-12-20T11:45:49;97679.63;;;8.35;100.00
18795;BME280;29610;49.022;12.114;2023-12-20T11:48:19;97678.25;;;8.37;100.00
18795;BME280;29610;49.022;12.114;2023-12-20T11:50:49;97678.44;;;8.63;100.00
18795;BME280;29610;49.022;12.114;2023-12-20T11:53:17;97680.44;;;8.57;100.00
18795;BME280;29610;49.022;12.114;2023-12-20T11:55:48;97663.03;;;8.72;100.00
18795;BME280;29610;49.022;12.114;2023-12-20T11:58:17;97661.84;;;8.86;100.00
18795;BME280;29610;49.022;12.114;2023-12-20T12:00:45;97655.47;;;8.91;100.00
18795;BME280;29610;49.022;12.114;2023-12-20T12:03:15;97661.72;;;9.00;100.00
18795;BME280;29610;49.022;12.114;2023-12-20T12:05:46;97661.22;;;8.89;100.00
18795;BME280;29610;49.022;12.114;2023-12-20T12:08:17;97668.31;;;8.77;100.00
18795;BME280;29610;49.022;12.114;2023-12-20T12:10:45;97661.56;;;8.66;100.00
18795;BME280;29610;49.022;12.114;2023-12-20T12:13:14;97660.50;;;8.31;100.00
18795;BME280;29610;49.022;12.114;2023-12-20T12:15:42;97650.22;;;8.20;100.00
18795;BME280;29610;49.022;12.114;2023-12-20T12:18:15;97661.91;;;8.29;100.00
18795;BME280;29610;49.022;12.114;2023-12-20T12:20:44;97660.34;;;8.28;100.00
18795;BME280;29610;49.022;12.114;2023-12-20T12:23:13;97662.25;;;7.78;100.00
18795;BME280;29610;49.022;12.114;2023-12-20T12:25:44;97654.34;;;7.68;100.00
18795;BME280;29610;49.022;12.114;2023-12-20T12:28:13;97655.06;;;7.74;100.00
18795;BME280;29610;49.022;12.114;2023-12-20T12:30:41;97675.38;;;7.85;100.00
18795;BME280;29610;49.022;12.114;2023-12-20T12:33:20;97667.47;;;7.75;100.00
18795;BME280;29610;49.022;12.114;2023-12-20T12:35:48;97688.53;;;7.64;100.00
18795;BME280;29610;49.022;12.114;2023-12-20T12:38:20;97684.81;;;7.74;100.00
18795;BME280;29610;49.022;12.114;2023-12-20T12:40:49;97687.63;;;7.41;100.00
18795;BME280;29610;49.022;12.114;2023-12-20T12:43:17;97679.69;;;7.59;100.00
18795;BME280;29610;49.022;12.114;2023-12-20T12:45:46;97684.16;;;7.90;100.00
18795;BME280;29610;49.022;12.114;2023-12-20T12:48:15;97673.38;;;7.77;100.00
18795;BME280;29610;49.022;12.114;2023-12-20T12:50:43;97672.19;;;8.05;100.00
18795;BME280;29610;49.022;12.114;2023-12-20T12:53:11;97663.09;;;8.01;100.00
18795;BME280;29610;49.022;12.114;2023-12-20T12:55:40;97659.97;;;8.07;100.00
18795;BME280;29610;49.022;12.114;2023-12-20T12:58:10;97659.84;;;8.12;100.00
18795;BME280;29610;49.022;12.114;2023-12-20T13:00:38;97655.16;;;8.04;100.00